createdAt,value
2022-10-31T00:01:55.958Z,97699.09
2022-10-31T00:11:58.052Z,97698.53
2022-10-31T00:22:00.183Z,97691.72
2022-10-31T00:32:02.259Z,97712.28
2022-10-31T00:42:04.495Z,97716.22
2022-10-31T00:52:06.732Z,97712.94
2022-10-31T01:02:09.004Z,97723.19
2022-10-31T01:12:11.258Z,97734.25
2022-10-31T01:22:13.320Z,97723.97
2022-10-31T01:32:16.088Z,97720.84
2022-10-31T01:42:23.369Z,97716.75
2022-10-31T01:52:31.823Z,97709.69
2022-10-31T02:02:34.112Z,97714.53
2022-10-31T02:12:37.436Z,97724.06
2022-10-31T02:22:54.139Z,97724.34
2022-10-31T02:33:01.973Z,97741.09
2022-10-31T02:43:30.461Z,97743.78
2022-10-31T02:53:36.070Z,97745.34
2022-10-31T03:03:46.794Z,97747.59
2022-10-31T03:13:51.760Z,97754.44
2022-10-31T03:23:55.880Z,97750.44
2022-10-31T03:34:01.633Z,97769.81
2022-10-31T03:44:09.479Z,97780.47
2022-10-31T03:54:24.181Z,97775.53
2022-10-31T04:04:27.587Z,97768.75
2022-10-31T04:14:33.372Z,97770.38
2022-10-31T04:24:35.538Z,97773.09
2022-10-31T04:34:37.610Z,97777.53
2022-10-31T04:44:39.677Z,97780.47
2022-10-31T04:54:41.769Z,97775.91
2022-10-31T05:04:43.850Z,97784.31
2022-10-31T05:14:48.507Z,97791.94
2022-10-31T05:24:50.963Z,97790.16
2022-10-31T05:34:53.078Z,97789.44
2022-10-31T05:44:55.146Z,97786.50
2022-10-31T05:54:57.272Z,97805.50
2022-10-31T06:04:59.432Z,97805.72
2022-10-31T06:15:01.586Z,97813.94
2022-10-31T06:25:03.965Z,97813.00
2022-10-31T06:35:06.593Z,97818.78
2022-10-31T06:45:09.023Z,97815.19
2022-10-31T06:55:11.127Z,97822.13
2022-10-31T07:05:13.427Z,97836.63
2022-10-31T07:15:15.690Z,97841.31
2022-10-31T07:25:17.840Z,97841.72
2022-10-31T07:35:29.958Z,97836.63
2022-10-31T07:45:32.416Z,97842.25
2022-10-31T07:55:35.681Z,97840.69
2022-10-31T08:05:38.309Z,97840.66
2022-10-31T08:15:42.589Z,97840.34
2022-10-31T08:25:44.839Z,97835.19
2022-10-31T08:35:46.967Z,97833.88
2022-10-31T08:45:50.325Z,97831.75
2022-10-31T08:55:55.904Z,97828.16
2022-10-31T09:06:00.467Z,97833.16
2022-10-31T09:16:02.676Z,97834.22
2022-10-31T09:26:05.037Z,97829.88
2022-10-31T09:36:07.276Z,97831.19
2022-10-31T09:46:19.207Z,97831.28
2022-10-31T09:56:25.703Z,97832.66
2022-10-31T10:06:30.834Z,97834.78
2022-10-31T10:17:10.257Z,97826.44
2022-10-31T10:27:23.554Z,97828.59
2022-10-31T10:37:25.813Z,97818.78
2022-10-31T10:47:41.471Z,97817.75
2022-10-31T10:57:55.298Z,97808.84
2022-10-31T11:07:57.597Z,97814.72
2022-10-31T11:18:00.606Z,97804.75
2022-10-31T11:28:09.939Z,97798.19
2022-10-31T11:38:19.578Z,97788.38
2022-10-31T11:48:25.879Z,97779.00
2022-10-31T11:58:28.520Z,97774.09
2022-10-31T12:08:37.094Z,97760.00
2022-10-31T12:18:52.081Z,97754.25
2022-10-31T12:29:28.244Z,97732.06
2022-10-31T12:39:36.546Z,97725.22
2022-10-31T12:50:12.961Z,97726.06
2022-10-31T13:00:18.038Z,97719.44
2022-10-31T13:10:44.485Z,97710.75
2022-10-31T13:43:36.742Z,97694.41
2022-10-31T13:53:54.622Z,97691.31
2022-10-31T14:04:11.102Z,97681.59
2022-10-31T14:14:16.883Z,97686.09
2022-10-31T14:24:25.092Z,97679.72
2022-10-31T14:34:36.074Z,97684.25
2022-10-31T14:45:19.682Z,97676.44
2022-10-31T14:55:22.978Z,97674.06
2022-10-31T15:05:28.067Z,97668.16
2022-10-31T15:15:31.735Z,97667.34
2022-10-31T15:25:36.039Z,97651.63
2022-10-31T15:35:38.315Z,97659.94
2022-10-31T15:45:43.758Z,97661.28
2022-10-31T15:55:54.263Z,97669.91
2022-10-31T16:06:01.451Z,97660.19
2022-10-31T16:16:34.065Z,97674.91
2022-10-31T16:26:34.904Z,97667.25
2022-10-31T16:36:39.590Z,97669.66
2022-10-31T16:46:41.784Z,97675.88
2022-10-31T16:56:44.093Z,97673.59
2022-10-31T17:06:46.371Z,97675.72
2022-10-31T17:16:49.424Z,97672.63
2022-10-31T17:26:51.734Z,97663.09
2022-10-31T17:36:53.993Z,97668.25
2022-10-31T17:46:56.228Z,97664.91
2022-10-31T17:56:58.458Z,97656.91
2022-10-31T18:07:00.942Z,97658.13
2022-10-31T18:17:03.499Z,97638.53
2022-10-31T18:27:05.761Z,97636.03
2022-10-31T18:37:07.922Z,97634.97
2022-10-31T18:47:10.006Z,97626.78
2022-10-31T18:57:12.301Z,97614.50
2022-10-31T19:07:14.470Z,97603.78
2022-10-31T19:17:16.682Z,97586.63
2022-10-31T19:27:19.007Z,97563.47
2022-10-31T19:37:21.115Z,97551.25
2022-10-31T19:47:23.269Z,97547.66
2022-10-31T19:57:48.422Z,97545.44
2022-10-31T20:07:47.568Z,97547.06
2022-10-31T20:17:49.661Z,97535.88
2022-10-31T20:27:51.970Z,97533.13
2022-10-31T20:37:54.147Z,97527.47
2022-10-31T20:48:00.015Z,97522.56
2022-10-31T20:58:02.323Z,97525.81
2022-10-31T21:08:04.567Z,97518.25
2022-10-31T21:18:06.720Z,97522.06
2022-10-31T21:28:10.586Z,97515.19
2022-10-31T21:40:10.757Z,97493.88
2022-10-31T21:50:12.971Z,97491.38
2022-10-31T22:00:15.761Z,97476.06
2022-10-31T22:10:17.931Z,97463.59
2022-10-31T22:20:21.468Z,97454.91
2022-10-31T22:30:23.586Z,97441.88
2022-10-31T22:40:25.727Z,97419.50
2022-10-31T22:50:27.888Z,97400.00
2022-10-31T23:00:30.003Z,97391.88
2022-10-31T23:10:35.879Z,97385.53
2022-10-31T23:20:38.494Z,97370.69
2022-10-31T23:30:40.605Z,97358.03
2022-10-31T23:40:43.536Z,97345.25
2022-10-31T23:50:47.169Z,97331.97
